Gardner, Kansas
Current Conditions -  °F | °C
As of 5:53 PM on Monday 24 Nov 2014 (Local Time) from KIXD Reporting Station
Clear Clear  
Wind Chill: 29°   Ceiling: Unl
Heat Index: 36°   Visibility: 10mi
Dew Point: 22°   Wind: 9mph
Humidity: 57%   Direction: 300°WNW
Pressure: 29.96"   Gusts: NA
Location:  38.81°N, 94.93°W
Report Text: KIXD 242353Z 30008KT 10SM CLR 02/M06 A2996 RMK AO2 SLP154 T00221056 10044 20017 53035
Loading
Personal Weather Stations






























Interactive Weather Map New forecast layout! Learn more

10-Day Weather Forecast

Advertisements
Track Severe Weather on mobile